sensor_id;sensor_type;location;lat;lon;timestamp;P1;durP1;ratioP1;P2;durP2;ratioP2
10729;SDS011;5416;59.258;18.128;2024-03-17T00:00:07;2.72;;;2.63;;
10729;SDS011;5416;59.258;18.128;2024-03-17T00:02:39;2.70;;;2.60;;
10729;SDS011;5416;59.258;18.128;2024-03-17T00:05:06;3.00;;;2.90;;
10729;SDS011;5416;59.258;18.128;2024-03-17T00:07:35;2.95;;;2.85;;
10729;SDS011;5416;59.258;18.128;2024-03-17T00:10:01;3.03;;;2.93;;
10729;SDS011;5416;59.258;18.128;2024-03-17T00:12:28;2.70;;;2.60;;
10729;SDS011;5416;59.258;18.128;2024-03-17T00:14:54;2.65;;;2.55;;
10729;SDS011;5416;59.258;18.128;2024-03-17T00:17:21;2.88;;;2.78;;
10729;SDS011;5416;59.258;18.128;2024-03-17T00:19:48;2.50;;;2.40;;
10729;SDS011;5416;59.258;18.128;2024-03-17T00:22:15;2.60;;;2.50;;
10729;SDS011;5416;59.258;18.128;2024-03-17T00:24:43;3.42;;;3.33;;
10729;SDS011;5416;59.258;18.128;2024-03-17T00:27:10;2.60;;;2.50;;
10729;SDS011;5416;59.258;18.128;2024-03-17T00:29:37;2.80;;;2.70;;
10729;SDS011;5416;59.258;18.128;2024-03-17T00:32:04;3.22;;;3.13;;
10729;SDS011;5416;59.258;18.128;2024-03-17T00:34:31;3.03;;;2.92;;
10729;SDS011;5416;59.258;18.128;2024-03-17T00:36:58;2.80;;;2.70;;
10729;SDS011;5416;59.258;18.128;2024-03-17T00:39:25;2.80;;;2.70;;
10729;SDS011;5416;59.258;18.128;2024-03-17T00:41:54;3.05;;;2.95;;
10729;SDS011;5416;59.258;18.128;2024-03-17T00:44:20;2.65;;;2.55;;
10729;SDS011;5416;59.258;18.128;2024-03-17T00:46:47;2.90;;;2.80;;
10729;SDS011;5416;59.258;18.128;2024-03-17T00:49:14;3.10;;;3.00;;
10729;SDS011;5416;59.258;18.128;2024-03-17T00:51:41;2.40;;;2.30;;
10729;SDS011;5416;59.258;18.128;2024-03-17T00:54:07;2.83;;;2.72;;
10729;SDS011;5416;59.258;18.128;2024-03-17T00:56:35;2.67;;;2.58;;
10729;SDS011;5416;59.258;18.128;2024-03-17T00:59:02;2.47;;;2.38;;
10729;SDS011;5416;59.258;18.128;2024-03-17T01:01:29;2.40;;;2.30;;
10729;SDS011;5416;59.258;18.128;2024-03-17T01:03:56;3.00;;;2.90;;
10729;SDS011;5416;59.258;18.128;2024-03-17T01:06:23;2.65;;;2.55;;
10729;SDS011;5416;59.258;18.128;2024-03-17T01:08:49;2.80;;;2.70;;
10729;SDS011;5416;59.258;18.128;2024-03-17T01:11:17;3.28;;;3.17;;
10729;SDS011;5416;59.258;18.128;2024-03-17T01:13:44;3.10;;;3.00;;
10729;SDS011;5416;59.258;18.128;2024-03-17T01:16:12;2.40;;;2.30;;
10729;SDS011;5416;59.258;18.128;2024-03-17T01:18:38;3.08;;;2.97;;
10729;SDS011;5416;59.258;18.128;2024-03-17T01:21:08;3.28;;;3.17;;
10729;SDS011;5416;59.258;18.128;2024-03-17T01:23:34;2.58;;;2.47;;
10729;SDS011;5416;59.258;18.128;2024-03-17T01:26:01;2.60;;;2.50;;
10729;SDS011;5416;59.258;18.128;2024-03-17T01:28:27;3.08;;;2.97;;
10729;SDS011;5416;59.258;18.128;2024-03-17T01:30:54;2.78;;;2.67;;
10729;SDS011;5416;59.258;18.128;2024-03-17T01:33:22;2.72;;;2.63;;
10729;SDS011;5416;59.258;18.128;2024-03-17T01:35:49;3.10;;;3.00;;
10729;SDS011;5416;59.258;18.128;2024-03-17T01:38:16;2.67;;;2.57;;
10729;SDS011;5416;59.258;18.128;2024-03-17T01:40:42;2.80;;;2.70;;
10729;SDS011;5416;59.258;18.128;2024-03-17T01:43:09;3.50;;;3.40;;
10729;SDS011;5416;59.258;18.128;2024-03-17T01:45:36;2.60;;;2.50;;
10729;SDS011;5416;59.258;18.128;2024-03-17T01:48:03;2.90;;;2.80;;
10729;SDS011;5416;59.258;18.128;2024-03-17T01:50:32;3.28;;;3.17;;
10729;SDS011;5416;59.258;18.128;2024-03-17T01:53:01;2.40;;;2.30;;
10729;SDS011;5416;59.258;18.128;2024-03-17T01:55:29;2.50;;;2.40;;
10729;SDS011;5416;59.258;18.128;2024-03-17T01:57:57;3.00;;;2.90;;
10729;SDS011;5416;59.258;18.128;2024-03-17T02:00:23;2.45;;;2.35;;
10729;SDS011;5416;59.258;18.128;2024-03-17T02:02:52;3.00;;;2.90;;
10729;SDS011;5416;59.258;18.128;2024-03-17T02:05:18;3.03;;;2.92;;
10729;SDS011;5416;59.258;18.128;2024-03-17T02:07:46;2.97;;;2.87;;
10729;SDS011;5416;59.258;18.128;2024-03-17T02:10:13;2.55;;;2.45;;
10729;SDS011;5416;59.258;18.128;2024-03-17T02:12:40;3.17;;;3.08;;
10729;SDS011;5416;59.258;18.128;2024-03-17T02:15:07;3.28;;;3.17;;
10729;SDS011;5416;59.258;18.128;2024-03-17T02:17:34;2.40;;;2.30;;
10729;SDS011;5416;59.258;18.128;2024-03-17T02:20:00;2.70;;;2.60;;
10729;SDS011;5416;59.258;18.128;2024-03-17T02:22:34;2.80;;;2.70;;
10729;SDS011;5416;59.258;18.128;2024-03-17T02:25:00;2.97;;;2.88;;
10729;SDS011;5416;59.258;18.128;2024-03-17T02:27:27;2.67;;;2.58;;
10729;SDS011;5416;59.258;18.128;2024-03-17T02:29:54;2.92;;;2.83;;
10729;SDS011;5416;59.258;18.128;2024-03-17T02:32:21;2.72;;;2.63;;
10729;SDS011;5416;59.258;18.128;2024-03-17T02:34:47;2.40;;;2.30;;
10729;SDS011;5416;59.258;18.128;2024-03-17T02:37:15;3.00;;;2.90;;
10729;SDS011;5416;59.258;18.128;2024-03-17T02:39:43;3.15;;;3.05;;
10729;SDS011;5416;59.258;18.128;2024-03-17T02:42:10;2.30;;;2.20;;
10729;SDS011;5416;59.258;18.128;2024-03-17T02:44:37;3.05;;;2.95;;
10729;SDS011;5416;59.258;18.128;2024-03-17T02:47:05;3.00;;;2.90;;
10729;SDS011;5416;59.258;18.128;2024-03-17T02:49:33;3.00;;;2.90;;
10729;SDS011;5416;59.258;18.128;2024-03-17T02:52:02;2.90;;;2.80;;
10729;SDS011;5416;59.258;18.128;2024-03-17T02:54:29;3.05;;;2.95;;
10729;SDS011;5416;59.258;18.128;2024-03-17T02:56:57;2.55;;;2.45;;
10729;SDS011;5416;59.258;18.128;2024-03-17T02:59:25;2.88;;;2.78;;
10729;SDS011;5416;59.258;18.128;2024-03-17T03:01:52;3.30;;;3.20;;
10729;SDS011;5416;59.258;18.128;2024-03-17T03:04:19;2.58;;;2.47;;
10729;SDS011;5416;59.258;18.128;2024-03-17T03:06:46;3.23;;;3.13;;
10729;SDS011;5416;59.258;18.128;2024-03-17T03:09:14;3.17;;;3.08;;
10729;SDS011;5416;59.258;18.128;2024-03-17T03:11:46;2.55;;;2.45;;
10729;SDS011;5416;59.258;18.128;2024-03-17T03:14:15;2.70;;;2.60;;
10729;SDS011;5416;59.258;18.128;2024-03-17T03:16:42;3.00;;;2.90;;
10729;SDS011;5416;59.258;18.128;2024-03-17T03:19:09;2.72;;;2.63;;
10729;SDS011;5416;59.258;18.128;2024-03-17T03:21:36;2.70;;;2.60;;
10729;SDS011;5416;59.258;18.128;2024-03-17T03:24:03;3.15;;;3.05;;
10729;SDS011;5416;59.258;18.128;2024-03-17T03:26:30;2.58;;;2.47;;
10729;SDS011;5416;59.258;18.128;2024-03-17T03:28:58;2.90;;;2.80;;
10729;SDS011;5416;59.258;18.128;2024-03-17T03:31:27;3.22;;;3.13;;
10729;SDS011;5416;59.258;18.128;2024-03-17T03:33:54;2.28;;;2.17;;
10729;SDS011;5416;59.258;18.128;2024-03-17T03:36:22;3.03;;;2.92;;
10729;SDS011;5416;59.258;18.128;2024-03-17T03:38:49;2.80;;;2.70;;
10729;SDS011;5416;59.258;18.128;2024-03-17T03:41:16;2.75;;;2.65;;
10729;SDS011;5416;59.258;18.128;2024-03-17T03:43:43;2.70;;;2.60;;
10729;SDS011;5416;59.258;18.128;2024-03-17T03:46:11;3.08;;;2.97;;
10729;SDS011;5416;59.258;18.128;2024-03-17T03:48:40;2.88;;;2.78;;
10729;SDS011;5416;59.258;18.128;2024-03-17T03:51:08;2.60;;;2.50;;
10729;SDS011;5416;59.258;18.128;2024-03-17T03:53:35;2.83;;;2.72;;
10729;SDS011;5416;59.258;18.128;2024-03-17T03:56:04;2.80;;;2.70;;
10729;SDS011;5416;59.258;18.128;2024-03-17T03:58:31;2.38;;;2.28;;
10729;SDS011;5416;59.258;18.128;2024-03-17T04:00:59;2.97;;;2.88;;
10729;SDS011;5416;59.258;18.128;2024-03-17T04:03:26;2.97;;;2.88;;
10729;SDS011;5416;59.258;18.128;2024-03-17T04:06:01;2.90;;;2.80;;
10729;SDS011;5416;59.258;18.128;2024-03-17T04:08:29;2.95;;;2.85;;
10729;SDS011;5416;59.258;18.128;2024-03-17T04:10:56;2.75;;;2.65;;
10729;SDS011;5416;59.258;18.128;2024-03-17T04:13:23;2.33;;;2.22;;
10729;SDS011;5416;59.258;18.128;2024-03-17T04:15:50;3.00;;;2.90;;
10729;SDS011;5416;59.258;18.128;2024-03-17T04:18:21;2.92;;;2.83;;
10729;SDS011;5416;59.258;18.128;2024-03-17T04:20:49;2.40;;;2.30;;
10729;SDS011;5416;59.258;18.128;2024-03-17T04:23:18;2.88;;;2.78;;
10729;SDS011;5416;59.258;18.128;2024-03-17T04:25:46;3.13;;;3.03;;
10729;SDS011;5416;59.258;18.128;2024-03-17T04:28:14;2.70;;;2.60;;
10729;SDS011;5416;59.258;18.128;2024-03-17T04:30:41;2.60;;;2.50;;
10729;SDS011;5416;59.258;18.128;2024-03-17T04:33:08;2.90;;;2.80;;
10729;SDS011;5416;59.258;18.128;2024-03-17T04:35:36;2.55;;;2.45;;
10729;SDS011;5416;59.258;18.128;2024-03-17T04:38:03;3.10;;;3.00;;
10729;SDS011;5416;59.258;18.128;2024-03-17T04:40:32;3.00;;;2.90;;
10729;SDS011;5416;59.258;18.128;2024-03-17T04:42:59;2.85;;;2.75;;
10729;SDS011;5416;59.258;18.128;2024-03-17T04:45:26;2.70;;;2.60;;
10729;SDS011;5416;59.258;18.128;2024-03-17T04:47:54;3.00;;;2.90;;
10729;SDS011;5416;59.258;18.128;2024-03-17T04:50:21;2.75;;;2.65;;
10729;SDS011;5416;59.258;18.128;2024-03-17T04:52:48;2.63;;;2.53;;
10729;SDS011;5416;59.258;18.128;2024-03-17T04:55:15;3.20;;;3.10;;
10729;SDS011;5416;59.258;18.128;2024-03-17T04:57:45;2.35;;;2.25;;
10729;SDS011;5416;59.258;18.128;2024-03-17T05:00:12;3.07;;;2.97;;
10729;SDS011;5416;59.258;18.128;2024-03-17T05:02:42;3.17;;;3.08;;
10729;SDS011;5416;59.258;18.128;2024-03-17T05:05:09;2.50;;;2.40;;
10729;SDS011;5416;59.258;18.128;2024-03-17T05:07:37;2.80;;;2.70;;
10729;SDS011;5416;59.258;18.128;2024-03-17T05:10:04;3.08;;;2.97;;
10729;SDS011;5416;59.258;18.128;2024-03-17T05:12:32;2.78;;;2.67;;
10729;SDS011;5416;59.258;18.128;2024-03-17T05:15:00;3.00;;;2.90;;
10729;SDS011;5416;59.258;18.128;2024-03-17T05:17:29;3.15;;;3.05;;
10729;SDS011;5416;59.258;18.128;2024-03-17T05:19:56;2.50;;;2.40;;
10729;SDS011;5416;59.258;18.128;2024-03-17T05:22:23;3.00;;;2.90;;
10729;SDS011;5416;59.258;18.128;2024-03-17T05:24:50;3.00;;;2.90;;
10729;SDS011;5416;59.258;18.128;2024-03-17T05:27:18;2.67;;;2.58;;
10729;SDS011;5416;59.258;18.128;2024-03-17T05:29:46;2.78;;;2.67;;
10729;SDS011;5416;59.258;18.128;2024-03-17T05:32:14;2.90;;;2.80;;
10729;SDS011;5416;59.258;18.128;2024-03-17T05:34:41;2.60;;;2.50;;
10729;SDS011;5416;59.258;18.128;2024-03-17T05:37:09;2.80;;;2.70;;
10729;SDS011;5416;59.258;18.128;2024-03-17T05:39:36;2.88;;;2.78;;
10729;SDS011;5416;59.258;18.128;2024-03-17T05:42:03;2.60;;;2.50;;
10729;SDS011;5416;59.258;18.128;2024-03-17T05:44:30;2.70;;;2.60;;
10729;SDS011;5416;59.258;18.128;2024-03-17T05:47:16;2.70;;;2.60;;
10729;SDS011;5416;59.258;18.128;2024-03-17T05:49:43;2.78;;;2.67;;
10729;SDS011;5416;59.258;18.128;2024-03-17T05:52:10;2.83;;;2.72;;
10729;SDS011;5416;59.258;18.128;2024-03-17T05:54:37;3.30;;;3.20;;
10729;SDS011;5416;59.258;18.128;2024-03-17T05:57:04;3.30;;;3.20;;
10729;SDS011;5416;59.258;18.128;2024-03-17T05:59:34;2.80;;;2.70;;
10729;SDS011;5416;59.258;18.128;2024-03-17T06:02:01;2.80;;;2.70;;
10729;SDS011;5416;59.258;18.128;2024-03-17T06:04:29;3.10;;;3.00;;
10729;SDS011;5416;59.258;18.128;2024-03-17T06:06:57;2.78;;;2.67;;
10729;SDS011;5416;59.258;18.128;2024-03-17T06:09:25;2.70;;;2.60;;
10729;SDS011;5416;59.258;18.128;2024-03-17T06:11:52;2.80;;;2.70;;
10729;SDS011;5416;59.258;18.128;2024-03-17T06:14:19;2.90;;;2.80;;
10729;SDS011;5416;59.258;18.128;2024-03-17T06:16:46;3.22;;;3.13;;
10729;SDS011;5416;59.258;18.128;2024-03-17T06:19:13;3.38;;;3.28;;
10729;SDS011;5416;59.258;18.128;2024-03-17T06:21:42;2.60;;;2.50;;
10729;SDS011;5416;59.258;18.128;2024-03-17T06:24:09;2.90;;;2.80;;
10729;SDS011;5416;59.258;18.128;2024-03-17T06:26:36;3.03;;;2.92;;
10729;SDS011;5416;59.258;18.128;2024-03-17T06:29:03;2.65;;;2.55;;
10729;SDS011;5416;59.258;18.128;2024-03-17T06:31:30;2.53;;;2.43;;
10729;SDS011;5416;59.258;18.128;2024-03-17T06:33:57;3.10;;;3.00;;
10729;SDS011;5416;59.258;18.128;2024-03-17T06:36:24;2.70;;;2.60;;
10729;SDS011;5416;59.258;18.128;2024-03-17T06:38:52;3.20;;;3.10;;
10729;SDS011;5416;59.258;18.128;2024-03-17T06:41:20;2.95;;;2.85;;
10729;SDS011;5416;59.258;18.128;2024-03-17T06:43:47;2.80;;;2.70;;
10729;SDS011;5416;59.258;18.128;2024-03-17T06:46:14;2.90;;;2.80;;
10729;SDS011;5416;59.258;18.128;2024-03-17T06:48:41;2.72;;;2.63;;
10729;SDS011;5416;59.258;18.128;2024-03-17T06:51:08;3.00;;;2.90;;
10729;SDS011;5416;59.258;18.128;2024-03-17T06:53:35;2.70;;;2.60;;
10729;SDS011;5416;59.258;18.128;2024-03-17T06:56:04;3.03;;;2.92;;
10729;SDS011;5416;59.258;18.128;2024-03-17T06:58:32;3.13;;;3.03;;
10729;SDS011;5416;59.258;18.128;2024-03-17T07:00:59;3.00;;;2.90;;
10729;SDS011;5416;59.258;18.128;2024-03-17T07:03:27;2.67;;;2.57;;
10729;SDS011;5416;59.258;18.128;2024-03-17T07:05:54;3.40;;;3.30;;
10729;SDS011;5416;59.258;18.128;2024-03-17T07:08:22;3.10;;;3.00;;
10729;SDS011;5416;59.258;18.128;2024-03-17T07:10:59;2.35;;;2.25;;
10729;SDS011;5416;59.258;18.128;2024-03-17T07:13:29;2.60;;;2.50;;
10729;SDS011;5416;59.258;18.128;2024-03-17T07:15:57;2.90;;;2.80;;
10729;SDS011;5416;59.258;18.128;2024-03-17T07:18:24;3.15;;;3.05;;
10729;SDS011;5416;59.258;18.128;2024-03-17T07:20:52;2.40;;;2.30;;
10729;SDS011;5416;59.258;18.128;2024-03-17T07:23:19;2.78;;;2.67;;
10729;SDS011;5416;59.258;18.128;2024-03-17T07:25:56;2.90;;;2.80;;
10729;SDS011;5416;59.258;18.128;2024-03-17T07:28:23;3.25;;;3.15;;
10729;SDS011;5416;59.258;18.128;2024-03-17T07:30:52;2.85;;;2.75;;
10729;SDS011;5416;59.258;18.128;2024-03-17T07:33:20;2.70;;;2.60;;
10729;SDS011;5416;59.258;18.128;2024-03-17T07:35:48;2.93;;;2.83;;
10729;SDS011;5416;59.258;18.128;2024-03-17T07:38:15;2.90;;;2.80;;
10729;SDS011;5416;59.258;18.128;2024-03-17T07:40:43;2.55;;;2.45;;
10729;SDS011;5416;59.258;18.128;2024-03-17T07:43:10;2.70;;;2.60;;
10729;SDS011;5416;59.258;18.128;2024-03-17T07:45:37;3.08;;;2.97;;
10729;SDS011;5416;59.258;18.128;2024-03-17T07:48:06;2.78;;;2.67;;
10729;SDS011;5416;59.258;18.128;2024-03-17T07:50:33;2.50;;;2.40;;
10729;SDS011;5416;59.258;18.128;2024-03-17T07:53:00;2.70;;;2.60;;
10729;SDS011;5416;59.258;18.128;2024-03-17T07:55:28;3.15;;;3.05;;
10729;SDS011;5416;59.258;18.128;2024-03-17T07:57:56;2.90;;;2.80;;
10729;SDS011;5416;59.258;18.128;2024-03-17T08:00:23;2.50;;;2.40;;
10729;SDS011;5416;59.258;18.128;2024-03-17T08:02:51;2.90;;;2.80;;
10729;SDS011;5416;59.258;18.128;2024-03-17T08:05:20;2.70;;;2.60;;
10729;SDS011;5416;59.258;18.128;2024-03-17T08:07:47;3.05;;;2.95;;
10729;SDS011;5416;59.258;18.128;2024-03-17T08:10:14;3.42;;;3.33;;
10729;SDS011;5416;59.258;18.128;2024-03-17T08:12:42;3.60;;;3.50;;
10729;SDS011;5416;59.258;18.128;2024-03-17T08:15:10;3.50;;;3.40;;
10729;SDS011;5416;59.258;18.128;2024-03-17T08:17:37;3.47;;;3.38;;
10729;SDS011;5416;59.258;18.128;2024-03-17T08:20:05;3.30;;;3.20;;
10729;SDS011;5416;59.258;18.128;2024-03-17T08:22:33;3.25;;;3.15;;
10729;SDS011;5416;59.258;18.128;2024-03-17T08:25:00;3.50;;;3.40;;
10729;SDS011;5416;59.258;18.128;2024-03-17T08:27:29;2.83;;;2.72;;
10729;SDS011;5416;59.258;18.128;2024-03-17T08:29:57;3.00;;;2.90;;
10729;SDS011;5416;59.258;18.128;2024-03-17T08:32:24;3.00;;;2.90;;
10729;SDS011;5416;59.258;18.128;2024-03-17T08:34:51;2.95;;;2.85;;
10729;SDS011;5416;59.258;18.128;2024-03-17T08:37:18;2.95;;;2.85;;
10729;SDS011;5416;59.258;18.128;2024-03-17T08:39:47;2.92;;;2.83;;
10729;SDS011;5416;59.258;18.128;2024-03-17T08:42:14;3.03;;;2.92;;
10729;SDS011;5416;59.258;18.128;2024-03-17T08:44:43;3.05;;;2.95;;
10729;SDS011;5416;59.258;18.128;2024-03-17T08:47:12;3.53;;;3.42;;
10729;SDS011;5416;59.258;18.128;2024-03-17T08:49:39;3.25;;;3.15;;
10729;SDS011;5416;59.258;18.128;2024-03-17T08:52:06;3.35;;;3.25;;
10729;SDS011;5416;59.258;18.128;2024-03-17T08:54:33;2.92;;;2.83;;
10729;SDS011;5416;59.258;18.128;2024-03-17T08:57:02;3.17;;;3.08;;
10729;SDS011;5416;59.258;18.128;2024-03-17T08:59:29;3.53;;;3.42;;
10729;SDS011;5416;59.258;18.128;2024-03-17T09:01:57;3.50;;;3.40;;
10729;SDS011;5416;59.258;18.128;2024-03-17T09:04:24;3.35;;;3.25;;
10729;SDS011;5416;59.258;18.128;2024-03-17T09:06:51;3.72;;;3.63;;
10729;SDS011;5416;59.258;18.128;2024-03-17T09:09:19;3.33;;;3.22;;
10729;SDS011;5416;59.258;18.128;2024-03-17T09:11:46;3.20;;;3.10;;
10729;SDS011;5416;59.258;18.128;2024-03-17T09:14:15;4.03;;;3.92;;
10729;SDS011;5416;59.258;18.128;2024-03-17T09:16:42;3.38;;;3.28;;
10729;SDS011;5416;59.258;18.128;2024-03-17T09:19:10;3.83;;;3.72;;
10729;SDS011;5416;59.258;18.128;2024-03-17T09:21:37;3.65;;;3.55;;
10729;SDS011;5416;59.258;18.128;2024-03-17T09:24:05;3.90;;;3.80;;
10729;SDS011;5416;59.258;18.128;2024-03-17T09:26:32;3.95;;;3.85;;
10729;SDS011;5416;59.258;18.128;2024-03-17T09:29:00;3.60;;;3.50;;
10729;SDS011;5416;59.258;18.128;2024-03-17T09:31:29;3.63;;;3.53;;
10729;SDS011;5416;59.258;18.128;2024-03-17T09:33:58;3.83;;;3.72;;
10729;SDS011;5416;59.258;18.128;2024-03-17T09:36:26;3.28;;;3.17;;
10729;SDS011;5416;59.258;18.128;2024-03-17T09:38:53;3.85;;;3.75;;
10729;SDS011;5416;59.258;18.128;2024-03-17T09:41:21;3.40;;;3.30;;
10729;SDS011;5416;59.258;18.128;2024-03-17T09:43:49;4.10;;;4.00;;
10729;SDS011;5416;59.258;18.128;2024-03-17T09:46:18;3.27;;;3.17;;
10729;SDS011;5416;59.258;18.128;2024-03-17T09:48:47;3.60;;;3.50;;
10729;SDS011;5416;59.258;18.128;2024-03-17T09:51:15;3.80;;;3.70;;
10729;SDS011;5416;59.258;18.128;2024-03-17T09:53:45;3.97;;;3.88;;
10729;SDS011;5416;59.258;18.128;2024-03-17T09:56:13;3.38;;;3.28;;
10729;SDS011;5416;59.258;18.128;2024-03-17T09:58:41;3.87;;;3.77;;
10729;SDS011;5416;59.258;18.128;2024-03-17T10:01:08;3.30;;;3.20;;
10729;SDS011;5416;59.258;18.128;2024-03-17T10:03:41;3.60;;;3.50;;
10729;SDS011;5416;59.258;18.128;2024-03-17T10:06:11;3.80;;;3.70;;
10729;SDS011;5416;59.258;18.128;2024-03-17T10:08:42;3.97;;;3.88;;
10729;SDS011;5416;59.258;18.128;2024-03-17T10:11:10;3.40;;;3.30;;
10729;SDS011;5416;59.258;18.128;2024-03-17T10:13:37;3.35;;;3.25;;
10729;SDS011;5416;59.258;18.128;2024-03-17T10:16:04;3.92;;;3.83;;
10729;SDS011;5416;59.258;18.128;2024-03-17T10:18:31;3.30;;;3.20;;
10729;SDS011;5416;59.258;18.128;2024-03-17T10:20:58;3.70;;;3.60;;
10729;SDS011;5416;59.258;18.128;2024-03-17T10:23:28;3.90;;;3.80;;
10729;SDS011;5416;59.258;18.128;2024-03-17T10:25:55;3.15;;;3.05;;
10729;SDS011;5416;59.258;18.128;2024-03-17T10:28:22;4.00;;;3.90;;
10729;SDS011;5416;59.258;18.128;2024-03-17T10:30:59;3.60;;;3.50;;
10729;SDS011;5416;59.258;18.128;2024-03-17T10:33:27;3.75;;;3.65;;
10729;SDS011;5416;59.258;18.128;2024-03-17T10:36:00;3.35;;;3.25;;
10729;SDS011;5416;59.258;18.128;2024-03-17T10:38:29;4.15;;;4.05;;
10729;SDS011;5416;59.258;18.128;2024-03-17T10:40:56;3.55;;;3.45;;
10729;SDS011;5416;59.258;18.128;2024-03-17T10:43:23;3.90;;;3.80;;
10729;SDS011;5416;59.258;18.128;2024-03-17T10:45:53;3.45;;;3.35;;
10729;SDS011;5416;59.258;18.128;2024-03-17T10:48:21;4.07;;;3.97;;
10729;SDS011;5416;59.258;18.128;2024-03-17T10:50:52;3.50;;;3.40;;
10729;SDS011;5416;59.258;18.128;2024-03-17T10:53:23;4.10;;;4.00;;
10729;SDS011;5416;59.258;18.128;2024-03-17T10:55:56;3.23;;;3.13;;
10729;SDS011;5416;59.258;18.128;2024-03-17T10:58:29;3.50;;;3.40;;
10729;SDS011;5416;59.258;18.128;2024-03-17T11:01:00;3.80;;;3.70;;
10729;SDS011;5416;59.258;18.128;2024-03-17T11:03:28;3.80;;;3.70;;
10729;SDS011;5416;59.258;18.128;2024-03-17T11:05:56;3.38;;;3.28;;
10729;SDS011;5416;59.258;18.128;2024-03-17T11:08:23;3.97;;;3.88;;
10729;SDS011;5416;59.258;18.128;2024-03-17T11:10:51;3.92;;;3.83;;
10729;SDS011;5416;59.258;18.128;2024-03-17T11:13:25;3.95;;;3.85;;
10729;SDS011;5416;59.258;18.128;2024-03-17T11:15:52;3.72;;;3.63;;
10729;SDS011;5416;59.258;18.128;2024-03-17T11:18:33;4.03;;;3.92;;
10729;SDS011;5416;59.258;18.128;2024-03-17T11:21:00;3.47;;;3.37;;
10729;SDS011;5416;59.258;18.128;2024-03-17T11:23:33;4.43;;;4.32;;
10729;SDS011;5416;59.258;18.128;2024-03-17T11:26:04;3.92;;;3.83;;
10729;SDS011;5416;59.258;18.128;2024-03-17T11:28:45;3.80;;;3.70;;
10729;SDS011;5416;59.258;18.128;2024-03-17T11:31:32;4.25;;;4.15;;
10729;SDS011;5416;59.258;18.128;2024-03-17T11:34:00;3.75;;;3.65;;
10729;SDS011;5416;59.258;18.128;2024-03-17T11:36:35;4.10;;;4.00;;
10729;SDS011;5416;59.258;18.128;2024-03-17T11:39:02;3.38;;;3.28;;
10729;SDS011;5416;59.258;18.128;2024-03-17T11:41:33;3.90;;;3.80;;
10729;SDS011;5416;59.258;18.128;2024-03-17T11:44:13;3.50;;;3.40;;
10729;SDS011;5416;59.258;18.128;2024-03-17T11:46:41;3.50;;;3.40;;
10729;SDS011;5416;59.258;18.128;2024-03-17T11:49:10;3.40;;;3.30;;
10729;SDS011;5416;59.258;18.128;2024-03-17T11:51:42;3.83;;;3.73;;
10729;SDS011;5416;59.258;18.128;2024-03-17T11:54:09;3.88;;;3.78;;
10729;SDS011;5416;59.258;18.128;2024-03-17T11:56:41;3.83;;;3.72;;
10729;SDS011;5416;59.258;18.128;2024-03-17T11:59:07;4.00;;;3.90;;
10729;SDS011;5416;59.258;18.128;2024-03-17T12:01:37;3.90;;;3.80;;
10729;SDS011;5416;59.258;18.128;2024-03-17T12:04:04;3.90;;;3.80;;
10729;SDS011;5416;59.258;18.128;2024-03-17T12:06:30;3.67;;;3.58;;
10729;SDS011;5416;59.258;18.128;2024-03-17T12:09:07;3.80;;;3.70;;
10729;SDS011;5416;59.258;18.128;2024-03-17T12:11:35;3.75;;;3.65;;
10729;SDS011;5416;59.258;18.128;2024-03-17T12:14:09;3.75;;;3.65;;
10729;SDS011;5416;59.258;18.128;2024-03-17T12:16:39;3.67;;;3.58;;
10729;SDS011;5416;59.258;18.128;2024-03-17T12:19:13;3.95;;;3.85;;
10729;SDS011;5416;59.258;18.128;2024-03-17T12:21:41;4.00;;;3.90;;
10729;SDS011;5416;59.258;18.128;2024-03-17T12:24:09;3.72;;;3.63;;
10729;SDS011;5416;59.258;18.128;2024-03-17T12:26:39;4.05;;;3.95;;
10729;SDS011;5416;59.258;18.128;2024-03-17T12:29:20;4.20;;;4.10;;
10729;SDS011;5416;59.258;18.128;2024-03-17T12:31:49;3.80;;;3.70;;
10729;SDS011;5416;59.258;18.128;2024-03-17T12:34:16;3.65;;;3.55;;
10729;SDS011;5416;59.258;18.128;2024-03-17T12:36:43;3.60;;;3.50;;
10729;SDS011;5416;59.258;18.128;2024-03-17T12:39:11;4.05;;;3.95;;
10729;SDS011;5416;59.258;18.128;2024-03-17T12:41:37;3.60;;;3.50;;
10729;SDS011;5416;59.258;18.128;2024-03-17T12:44:04;3.80;;;3.70;;
10729;SDS011;5416;59.258;18.128;2024-03-17T12:46:30;3.40;;;3.30;;
10729;SDS011;5416;59.258;18.128;2024-03-17T12:49:00;3.47;;;3.38;;
10729;SDS011;5416;59.258;18.128;2024-03-17T12:51:26;3.75;;;3.65;;
10729;SDS011;5416;59.258;18.128;2024-03-17T12:56:34;3.60;;;3.50;;
10729;SDS011;5416;59.258;18.128;2024-03-17T12:59:19;3.40;;;3.30;;
10729;SDS011;5416;59.258;18.128;2024-03-17T13:02:04;4.17;;;4.07;;
10729;SDS011;5416;59.258;18.128;2024-03-17T13:04:37;3.50;;;3.40;;
10729;SDS011;5416;59.258;18.128;2024-03-17T13:07:13;3.58;;;3.47;;
10729;SDS011;5416;59.258;18.128;2024-03-17T13:09:42;3.60;;;3.50;;
10729;SDS011;5416;59.258;18.128;2024-03-17T13:12:13;3.30;;;3.20;;
10729;SDS011;5416;59.258;18.128;2024-03-17T13:14:41;3.70;;;3.60;;
10729;SDS011;5416;59.258;18.128;2024-03-17T13:17:08;3.97;;;3.87;;
10729;SDS011;5416;59.258;18.128;2024-03-17T13:19:46;3.83;;;3.72;;
10729;SDS011;5416;59.258;18.128;2024-03-17T13:22:13;3.30;;;3.20;;
10729;SDS011;5416;59.258;18.128;2024-03-17T13:24:40;3.80;;;3.70;;
10729;SDS011;5416;59.258;18.128;2024-03-17T13:27:07;3.40;;;3.30;;
10729;SDS011;5416;59.258;18.128;2024-03-17T13:29:35;3.58;;;3.47;;
10729;SDS011;5416;59.258;18.128;2024-03-17T13:32:02;3.40;;;3.30;;
10729;SDS011;5416;59.258;18.128;2024-03-17T13:34:30;3.42;;;3.33;;
10729;SDS011;5416;59.258;18.128;2024-03-17T13:36:58;3.13;;;3.03;;
10729;SDS011;5416;59.258;18.128;2024-03-17T13:39:29;3.25;;;3.15;;
10729;SDS011;5416;59.258;18.128;2024-03-17T13:41:56;3.20;;;3.10;;
10729;SDS011;5416;59.258;18.128;2024-03-17T13:44:28;3.67;;;3.58;;
10729;SDS011;5416;59.258;18.128;2024-03-17T13:46:56;3.40;;;3.30;;
10729;SDS011;5416;59.258;18.128;2024-03-17T13:49:23;3.00;;;2.90;;
10729;SDS011;5416;59.258;18.128;2024-03-17T13:51:51;3.13;;;3.03;;
10729;SDS011;5416;59.258;18.128;2024-03-17T13:54:19;3.15;;;3.05;;
10729;SDS011;5416;59.258;18.128;2024-03-17T13:56:47;3.45;;;3.35;;
10729;SDS011;5416;59.258;18.128;2024-03-17T13:59:14;3.33;;;3.22;;
10729;SDS011;5416;59.258;18.128;2024-03-17T14:01:41;3.60;;;3.50;;
10729;SDS011;5416;59.258;18.128;2024-03-17T14:04:11;2.92;;;2.83;;
10729;SDS011;5416;59.258;18.128;2024-03-17T14:06:40;3.17;;;3.08;;
10729;SDS011;5416;59.258;18.128;2024-03-17T14:09:07;2.85;;;2.75;;
10729;SDS011;5416;59.258;18.128;2024-03-17T14:11:36;3.35;;;3.25;;
10729;SDS011;5416;59.258;18.128;2024-03-17T14:14:03;3.20;;;3.10;;
10729;SDS011;5416;59.258;18.128;2024-03-17T14:16:31;3.10;;;3.00;;
10729;SDS011;5416;59.258;18.128;2024-03-17T14:18:58;3.00;;;2.90;;
10729;SDS011;5416;59.258;18.128;2024-03-17T14:21:26;3.70;;;3.60;;
10729;SDS011;5416;59.258;18.128;2024-03-17T14:23:53;3.47;;;3.38;;
10729;SDS011;5416;59.258;18.128;2024-03-17T14:26:20;2.78;;;2.67;;
10729;SDS011;5416;59.258;18.128;2024-03-17T14:28:49;2.97;;;2.88;;
10729;SDS011;5416;59.258;18.128;2024-03-17T14:31:16;3.33;;;3.22;;
10729;SDS011;5416;59.258;18.128;2024-03-17T14:33:43;3.13;;;3.03;;
10729;SDS011;5416;59.258;18.128;2024-03-17T14:36:11;3.17;;;3.08;;
10729;SDS011;5416;59.258;18.128;2024-03-17T14:38:38;2.88;;;2.78;;
10729;SDS011;5416;59.258;18.128;2024-03-17T14:41:05;3.10;;;3.00;;
10729;SDS011;5416;59.258;18.128;2024-03-17T14:43:32;2.90;;;2.80;;
10729;SDS011;5416;59.258;18.128;2024-03-17T14:46:04;2.80;;;2.70;;
10729;SDS011;5416;59.258;18.128;2024-03-17T14:48:33;3.27;;;3.17;;
10729;SDS011;5416;59.258;18.128;2024-03-17T14:51:00;3.20;;;3.10;;
10729;SDS011;5416;59.258;18.128;2024-03-17T14:53:27;3.15;;;3.05;;
10729;SDS011;5416;59.258;18.128;2024-03-17T14:55:54;3.08;;;2.97;;